Carlisle Airport, United Kingdom

5:58 AM BST on September 05, 2015 (GMT +0100)
Brampton, Cumbria | | Change Station
CLOSE
Current Station
Personal Weather Station
Location: Brampton, CUMBRIA
Elevation: 390 ft
Nearby Weather Stations

Elev 390 ft 54.94 °N, 2.73 °W | Updated 5 seconds ago

Scattered Clouds
Scattered Clouds
46.6 °F
Feels Like 47 °F
N
0.0
Wind Variable Wind from North
Gusts 3.0 mph

Today
High -- | Low -- °F
--% Chance of Precip.
Yesterday
High -- | Low -- °F
Precip. -- in
6:24 AM 7:54 PM
Waning Gibbous, 52% visible
Pressure 30.12 in
Visibility 6.2 miles
Clouds Scattered Clouds 2400 ft
Windchill 47 °F
Dew Point 42 °F
Humidity 84%
Rainfall 0.00 in
Snow Depth Not available.
UV 0 out of 12
Pollen Not available.
Air Quality Not available.
Flu Activity Not available.
METAR EGNT 050450Z 34009KT 9999 SCT024 09/07 Q1020
Pressure 30.12 in
Visibility 6.2 miles
Clouds Scattered Clouds 2400 ft
Windchill 47 °F
Dew Point 42 °F
Humidity 84%
Rainfall 0.00 in
Snow Depth Not available.
UV 0 out of 12
Pollen Not available.
Air Quality Not available.
Flu Activity Not available.
METAR EGNT 050450Z 34009KT 9999 SCT024 09/07 Q1020

10-Day Weather Forecast

×

Almanac

Astronomy

Sep. 05, 2015 Rise Set
Actual Time
Civil Twilight
Nautical Twilight
Astronomical Twilight
Moon
Length of Visible Light
Length of Day
Tomorrow will be .
, % of the Moon is Illuminated

Today's Extremes

Country Highs Country Lows

Community

WunderPhotos

Upload Photos

1,852,426 photos uploaded!

WunderBlogs® & News

Nearby

Air Quality

  Air Quality AQ Index Pollutant
Not available.

Snow Depth

Station Depth Elevation

Earthquake Activity

City Distance Mag. Time & Date
Minimum magnitude displayed is 2.5.

Coastal Water Temperatures

Place Temperature

Stations

Nearby Weather Stations

Station Location Temp. Windchill Dew Point Humidity Wind Precip. Elev Updated Type